CDC1097 ZBTJ-ZSFZ
Flight info
| Callsign | CDC1097 |
|---|---|
| Flight time | 2h 11m |
| Altitude | 32100 |
| Route | ELKUR8W ELKUR W40 YQG W142 DALIM A593 DPX A470 PADRU |
| Aircraft | A320/M-SDE3FGHIRWY/LB1 |
Departure
| Time | 2026-04-23 12:09 |
|---|---|
| Airport | Tianjin Binhai International Airport (ZBTJ) |
Arrival
| Time | 2026-04-23 14:20 |
|---|---|
| Airport | Fuzhou Changle International Airport (ZSFZ) |
| Time | Latitude | Longitude | Altitude | Speed | Heading |
|---|---|---|---|---|---|
| 2026-04-23 12:03 | 39.12396 | 117.35388 | 19 ft | 6 kts | 200° |
| 2026-04-23 12:03 | 39.12354 | 117.35381 | 19 ft | 12 kts | 185° |
| 2026-04-23 12:03 | 39.12262 | 117.35292 | 21 ft | 15 kts | 244° |
| 2026-04-23 12:03 | 39.12231 | 117.35210 | 19 ft | 16 kts | 244° |
| 2026-04-23 12:04 | 39.12186 | 117.35077 | 19 ft | 17 kts | 255° |
| 2026-04-23 12:04 | 39.12256 | 117.34985 | 20 ft | 15 kts | 335° |
| 2026-04-23 12:04 | 39.12369 | 117.34913 | 19 ft | 22 kts | 336° |
| 2026-04-23 12:04 | 39.12508 | 117.34830 | 19 ft | 23 kts | 334° |
| 2026-04-23 12:05 | 39.12631 | 117.34754 | 20 ft | 23 kts | 334° |
| 2026-04-23 12:05 | 39.12771 | 117.34668 | 19 ft | 24 kts | 334° |
| 2026-04-23 12:05 | 39.12919 | 117.34577 | 20 ft | 25 kts | 334° |
| 2026-04-23 12:05 | 39.13080 | 117.34480 | 20 ft | 26 kts | 335° |
| 2026-04-23 12:06 | 39.13246 | 117.34377 | 21 ft | 27 kts | 335° |
| 2026-04-23 12:06 | 39.13418 | 117.34272 | 19 ft | 28 kts | 334° |
| 2026-04-23 12:06 | 39.13774 | 117.34051 | 19 ft | 29 kts | 334° |
| 2026-04-23 12:07 | 39.13958 | 117.33936 | 19 ft | 30 kts | 334° |
| 2026-04-23 12:07 | 39.14106 | 117.33841 | 19 ft | 17 kts | 310° |
| 2026-04-23 12:07 | 39.14079 | 117.33703 | 19 ft | 17 kts | 244° |
| 2026-04-23 12:07 | 39.13994 | 117.33656 | 20 ft | 16 kts | 152° |
| 2026-04-23 12:08 | 39.13963 | 117.33678 | 19 ft | 3 kts | 152° |
| 2026-04-23 12:08 | 39.13849 | 117.33749 | 20 ft | 50 kts | 154° |
| 2026-04-23 12:08 | 39.13329 | 117.34067 | 18 ft | 113 kts | 155° |
| 2026-04-23 12:08 | 39.12464 | 117.34598 | 21 ft | 161 kts | 155° |
| 2026-04-23 12:09 | 39.11415 | 117.35225 | 497 ft | 165 kts | 159° |
| 2026-04-23 12:09 | 39.10370 | 117.35850 | 1146 ft | 165 kts | 159° |
| 2026-04-23 12:09 | 39.09339 | 117.36493 | 1841 ft | 167 kts | 160° |
| 2026-04-23 12:09 | 39.08236 | 117.37175 | 2188 ft | 186 kts | 160° |
| 2026-04-23 12:10 | 39.06996 | 117.37939 | 2421 ft | 210 kts | 160° |
| 2026-04-23 12:10 | 39.05610 | 117.38792 | 2818 ft | 229 kts | 159° |
| 2026-04-23 12:10 | 39.04160 | 117.39693 | 3535 ft | 235 kts | 159° |
| 2026-04-23 12:10 | 39.02662 | 117.40622 | 4257 ft | 242 kts | 159° |
| 2026-04-23 12:11 | 39.01075 | 117.41489 | 4760 ft | 256 kts | 171° |
| 2026-04-23 12:11 | 38.99284 | 117.41482 | 5264 ft | 262 kts | 199° |
| 2026-04-23 12:11 | 38.97686 | 117.40402 | 5987 ft | 262 kts | 221° |
| 2026-04-23 12:11 | 38.96243 | 117.38945 | 6760 ft | 266 kts | 221° |
| 2026-04-23 12:12 | 38.94787 | 117.37449 | 7520 ft | 270 kts | 221° |
| 2026-04-23 12:12 | 38.93320 | 117.35911 | 8279 ft | 274 kts | 225° |
| 2026-04-23 12:12 | 38.92085 | 117.34045 | 9006 ft | 276 kts | 240° |
| 2026-04-23 12:12 | 38.91174 | 117.31860 | 9753 ft | 280 kts | 244° |
| 2026-04-23 12:13 | 38.90270 | 117.29617 | 10325 ft | 290 kts | 244° |
| 2026-04-23 12:13 | 38.89298 | 117.27223 | 10520 ft | 314 kts | 244° |
| 2026-04-23 12:13 | 38.88252 | 117.24656 | 10714 ft | 335 kts | 244° |
| 2026-04-23 12:13 | 38.87151 | 117.21963 | 11214 ft | 344 kts | 244° |
| 2026-04-23 12:14 | 38.86030 | 117.19237 | 11856 ft | 348 kts | 244° |
| 2026-04-23 12:14 | 38.84889 | 117.16472 | 12530 ft | 352 kts | 244° |
| 2026-04-23 12:14 | 38.83741 | 117.13687 | 13190 ft | 356 kts | 244° |
| 2026-04-23 12:14 | 38.82579 | 117.10864 | 13828 ft | 360 kts | 244° |
| 2026-04-23 12:15 | 38.81408 | 117.08017 | 14399 ft | 363 kts | 244° |
| 2026-04-23 12:15 | 38.80221 | 117.05134 | 14967 ft | 367 kts | 244° |
| 2026-04-23 12:15 | 38.79023 | 117.02228 | 15537 ft | 371 kts | 244° |
| 2026-04-23 12:15 | 38.77813 | 116.99296 | 16098 ft | 374 kts | 244° |
| 2026-04-23 12:16 | 38.76588 | 116.96329 | 16646 ft | 378 kts | 244° |
| 2026-04-23 12:16 | 38.75354 | 116.93335 | 17186 ft | 382 kts | 244° |
| 2026-04-23 12:16 | 38.74100 | 116.90317 | 17711 ft | 386 kts | 243° |
| 2026-04-23 12:16 | 38.72819 | 116.87278 | 18220 ft | 390 kts | 243° |
| 2026-04-23 12:17 | 38.71516 | 116.84215 | 18690 ft | 393 kts | 243° |
| 2026-04-23 12:17 | 38.70204 | 116.81138 | 19154 ft | 395 kts | 243° |
| 2026-04-23 12:17 | 38.68881 | 116.78035 | 19603 ft | 399 kts | 243° |
| 2026-04-23 12:17 | 38.67550 | 116.74912 | 20049 ft | 401 kts | 243° |
| 2026-04-23 12:18 | 38.65998 | 116.71919 | 20485 ft | 407 kts | 232° |
| 2026-04-23 12:18 | 38.63972 | 116.69366 | 20912 ft | 412 kts | 219° |
| 2026-04-23 12:18 | 38.61550 | 116.67392 | 21332 ft | 417 kts | 207° |
| 2026-04-23 12:18 | 38.58821 | 116.66110 | 21735 ft | 421 kts | 194° |
| 2026-04-23 12:19 | 38.55911 | 116.65569 | 22158 ft | 424 kts | 185° |
| 2026-04-23 12:19 | 38.52956 | 116.65243 | 22572 ft | 427 kts | 185° |
| 2026-04-23 12:19 | 38.49991 | 116.64906 | 22973 ft | 430 kts | 185° |
| 2026-04-23 12:19 | 38.47001 | 116.64560 | 23397 ft | 433 kts | 185° |
| 2026-04-23 12:20 | 38.43991 | 116.64209 | 23745 ft | 435 kts | 185° |
| 2026-04-23 12:20 | 38.40968 | 116.63856 | 24084 ft | 438 kts | 185° |
| 2026-04-23 12:20 | 38.37922 | 116.63503 | 24404 ft | 440 kts | 185° |
| 2026-04-23 12:20 | 38.34861 | 116.63149 | 24721 ft | 443 kts | 185° |
| 2026-04-23 12:21 | 38.31779 | 116.62833 | 25033 ft | 445 kts | 181° |
| 2026-04-23 12:21 | 38.28683 | 116.63005 | 25350 ft | 447 kts | 172° |
| 2026-04-23 12:21 | 38.25632 | 116.63793 | 25671 ft | 448 kts | 163° |
| 2026-04-23 12:21 | 38.22644 | 116.64917 | 25989 ft | 450 kts | 162° |
| 2026-04-23 12:22 | 38.19632 | 116.66046 | 26308 ft | 452 kts | 162° |
| 2026-04-23 12:22 | 38.16613 | 116.67166 | 26638 ft | 454 kts | 163° |
| 2026-04-23 12:22 | 38.13571 | 116.68289 | 26954 ft | 456 kts | 163° |
| 2026-04-23 12:22 | 38.10523 | 116.69413 | 27256 ft | 458 kts | 163° |
| 2026-04-23 12:23 | 38.07460 | 116.70556 | 27560 ft | 459 kts | 162° |
| 2026-04-23 12:23 | 38.04388 | 116.71725 | 27852 ft | 461 kts | 162° |
| 2026-04-23 12:23 | 38.01311 | 116.72909 | 28142 ft | 463 kts | 162° |
| 2026-04-23 12:23 | 37.98223 | 116.74100 | 28425 ft | 465 kts | 162° |
| 2026-04-23 12:24 | 37.95122 | 116.75291 | 28690 ft | 467 kts | 162° |
| 2026-04-23 12:24 | 37.92009 | 116.76481 | 28959 ft | 468 kts | 162° |
| 2026-04-23 12:24 | 37.88925 | 116.77651 | 29229 ft | 470 kts | 162° |
| 2026-04-23 12:24 | 37.85781 | 116.78836 | 29491 ft | 472 kts | 162° |
| 2026-04-23 12:25 | 37.82635 | 116.80019 | 29753 ft | 473 kts | 162° |
| 2026-04-23 12:25 | 37.79480 | 116.81209 | 30113 ft | 472 kts | 162° |
| 2026-04-23 12:25 | 37.76338 | 116.82395 | 30432 ft | 471 kts | 162° |
| 2026-04-23 12:25 | 37.73198 | 116.83582 | 30737 ft | 470 kts | 162° |
| 2026-04-23 12:26 | 37.70064 | 116.84769 | 31047 ft | 470 kts | 163° |
| 2026-04-23 12:26 | 37.66936 | 116.85956 | 31344 ft | 469 kts | 163° |
| 2026-04-23 12:26 | 37.63812 | 116.87142 | 31650 ft | 469 kts | 163° |
| 2026-04-23 12:26 | 37.60648 | 116.88334 | 31939 ft | 469 kts | 163° |
| 2026-04-23 12:27 | 37.57561 | 116.89492 | 32052 ft | 467 kts | 163° |
| 2026-04-23 12:27 | 37.54453 | 116.90658 | 32064 ft | 465 kts | 163° |
| 2026-04-23 12:27 | 37.48253 | 116.92982 | 32066 ft | 464 kts | 163° |
| 2026-04-23 12:28 | 37.42057 | 116.95305 | 32071 ft | 465 kts | 164° |
| 2026-04-23 12:28 | 37.35859 | 116.97628 | 32068 ft | 465 kts | 164° |
| 2026-04-23 12:29 | 37.29657 | 116.99953 | 32075 ft | 465 kts | 163° |
| 2026-04-23 12:29 | 37.23541 | 117.02591 | 32074 ft | 465 kts | 160° |
| 2026-04-23 12:30 | 37.17502 | 117.05543 | 32073 ft | 465 kts | 159° |
| 2026-04-23 12:30 | 37.11472 | 117.08477 | 32077 ft | 465 kts | 160° |
| 2026-04-23 12:31 | 37.05411 | 117.11324 | 32081 ft | 465 kts | 160° |
| 2026-04-23 12:31 | 36.99343 | 117.14123 | 32076 ft | 465 kts | 161° |
| 2026-04-23 12:32 | 36.93266 | 117.16924 | 32082 ft | 465 kts | 161° |
| 2026-04-23 12:32 | 36.87230 | 117.19723 | 32082 ft | 466 kts | 161° |
| 2026-04-23 12:33 | 36.80950 | 117.21512 | 32092 ft | 462 kts | 178° |
| 2026-04-23 12:33 | 36.74545 | 117.21531 | 32095 ft | 461 kts | 183° |
| 2026-04-23 12:34 | 36.68128 | 117.21472 | 32095 ft | 461 kts | 183° |
| 2026-04-23 12:34 | 36.61722 | 117.21438 | 32107 ft | 461 kts | 183° |
| 2026-04-23 12:35 | 36.55312 | 117.21409 | 32114 ft | 460 kts | 183° |
| 2026-04-23 12:35 | 36.48908 | 117.21362 | 32116 ft | 460 kts | 184° |
| 2026-04-23 12:36 | 36.42506 | 117.21485 | 32122 ft | 462 kts | 176° |
| 2026-04-23 12:36 | 36.36229 | 117.23372 | 32125 ft | 466 kts | 166° |
| 2026-04-23 12:37 | 36.30024 | 117.25693 | 32118 ft | 466 kts | 166° |
| 2026-04-23 12:37 | 36.23812 | 117.27992 | 32123 ft | 466 kts | 167° |
| 2026-04-23 12:38 | 36.17612 | 117.30289 | 32122 ft | 465 kts | 167° |
| 2026-04-23 12:38 | 36.11404 | 117.32577 | 32123 ft | 465 kts | 167° |
| 2026-04-23 12:39 | 36.05200 | 117.34871 | 32110 ft | 465 kts | 167° |
| 2026-04-23 12:39 | 35.99004 | 117.37159 | 32117 ft | 465 kts | 167° |
| 2026-04-23 12:40 | 35.92814 | 117.39467 | 32122 ft | 465 kts | 167° |
| 2026-04-23 12:40 | 35.86631 | 117.41795 | 32125 ft | 465 kts | 167° |
| 2026-04-23 12:41 | 35.80445 | 117.44116 | 32121 ft | 464 kts | 167° |
| 2026-04-23 12:41 | 35.74258 | 117.46422 | 32125 ft | 464 kts | 167° |
| 2026-04-23 12:42 | 35.68074 | 117.48719 | 32134 ft | 464 kts | 167° |
| 2026-04-23 12:42 | 35.61895 | 117.51018 | 32144 ft | 464 kts | 167° |
| 2026-04-23 12:43 | 35.55729 | 117.53317 | 32145 ft | 463 kts | 167° |
| 2026-04-23 12:43 | 35.49556 | 117.55601 | 32139 ft | 463 kts | 167° |
| 2026-04-23 12:44 | 35.44425 | 117.57489 | 32146 ft | 463 kts | 167° |
| 2026-04-23 12:44 | 35.38251 | 117.59774 | 32144 ft | 463 kts | 167° |
| 2026-04-23 12:45 | 35.31087 | 117.62427 | 32137 ft | 462 kts | 168° |
| 2026-04-23 12:45 | 35.24931 | 117.64692 | 32141 ft | 462 kts | 168° |
| 2026-04-23 12:46 | 35.19784 | 117.66582 | 32140 ft | 461 kts | 168° |
| 2026-04-23 12:46 | 35.13645 | 117.68840 | 32140 ft | 461 kts | 168° |
| 2026-04-23 12:47 | 35.07507 | 117.71090 | 32130 ft | 460 kts | 168° |
| 2026-04-23 12:47 | 35.01367 | 117.73332 | 32139 ft | 460 kts | 168° |
| 2026-04-23 12:48 | 34.95242 | 117.75572 | 32146 ft | 460 kts | 168° |
| 2026-04-23 12:48 | 34.89108 | 117.77817 | 32148 ft | 460 kts | 168° |
| 2026-04-23 12:49 | 34.82990 | 117.80054 | 32123 ft | 459 kts | 168° |
| 2026-04-23 12:49 | 34.76870 | 117.82285 | 32136 ft | 459 kts | 168° |
| 2026-04-23 12:50 | 34.70757 | 117.84483 | 32149 ft | 458 kts | 169° |
| 2026-04-23 12:50 | 34.64638 | 117.86678 | 32150 ft | 458 kts | 169° |
| 2026-04-23 12:51 | 34.58521 | 117.88871 | 32167 ft | 458 kts | 169° |
| 2026-04-23 12:51 | 34.52408 | 117.91057 | 32147 ft | 458 kts | 169° |
| 2026-04-23 12:52 | 34.46298 | 117.93236 | 32156 ft | 458 kts | 169° |
| 2026-04-23 12:52 | 34.40190 | 117.95418 | 32166 ft | 458 kts | 169° |
| 2026-04-23 12:53 | 34.34082 | 117.97599 | 32165 ft | 458 kts | 169° |
| 2026-04-23 12:53 | 34.27975 | 117.99779 | 32154 ft | 457 kts | 169° |
| 2026-04-23 12:54 | 34.21886 | 118.01972 | 32163 ft | 457 kts | 169° |
| 2026-04-23 12:54 | 34.15799 | 118.04200 | 32165 ft | 457 kts | 169° |
| 2026-04-23 12:55 | 34.09712 | 118.06425 | 32168 ft | 457 kts | 169° |
| 2026-04-23 12:55 | 34.03676 | 118.08620 | 32149 ft | 456 kts | 170° |
| 2026-04-23 12:56 | 33.97615 | 118.10821 | 32171 ft | 454 kts | 170° |
| 2026-04-23 12:56 | 33.91530 | 118.13042 | 32175 ft | 453 kts | 170° |
| 2026-04-23 12:57 | 33.85536 | 118.15222 | 32171 ft | 453 kts | 170° |
| 2026-04-23 12:57 | 33.79507 | 118.17402 | 32149 ft | 453 kts | 171° |
| 2026-04-23 12:58 | 33.73471 | 118.19596 | 32155 ft | 453 kts | 171° |
| 2026-04-23 12:58 | 33.67449 | 118.21796 | 32156 ft | 452 kts | 171° |
| 2026-04-23 12:59 | 33.61434 | 118.23989 | 32155 ft | 452 kts | 171° |
| 2026-04-23 12:59 | 33.55415 | 118.26171 | 32125 ft | 452 kts | 171° |
| 2026-04-23 13:00 | 33.49390 | 118.28356 | 32136 ft | 452 kts | 171° |
| 2026-04-23 13:00 | 33.43374 | 118.30533 | 32144 ft | 452 kts | 171° |
| 2026-04-23 13:01 | 33.37361 | 118.32706 | 32147 ft | 451 kts | 171° |
| 2026-04-23 13:01 | 33.31349 | 118.34876 | 32147 ft | 451 kts | 171° |
| 2026-04-23 13:02 | 33.25340 | 118.37038 | 32115 ft | 451 kts | 172° |
| 2026-04-23 13:02 | 33.19341 | 118.39190 | 32143 ft | 450 kts | 172° |
| 2026-04-23 13:03 | 33.13352 | 118.41350 | 32155 ft | 449 kts | 172° |
| 2026-04-23 13:03 | 33.07379 | 118.43503 | 32157 ft | 449 kts | 172° |
| 2026-04-23 13:04 | 33.01406 | 118.45645 | 32155 ft | 448 kts | 172° |
| 2026-04-23 13:04 | 32.95448 | 118.47788 | 32152 ft | 448 kts | 172° |
| 2026-04-23 13:05 | 32.89476 | 118.49926 | 32155 ft | 448 kts | 172° |
| 2026-04-23 13:05 | 32.83513 | 118.52051 | 32155 ft | 448 kts | 172° |
| 2026-04-23 13:06 | 32.74568 | 118.55255 | 32128 ft | 447 kts | 173° |
| 2026-04-23 13:07 | 32.68605 | 118.57381 | 32138 ft | 447 kts | 173° |
| 2026-04-23 13:07 | 32.62676 | 118.59736 | 32142 ft | 452 kts | 169° |
| 2026-04-23 13:08 | 32.56818 | 118.62494 | 32146 ft | 454 kts | 167° |
| 2026-04-23 13:08 | 32.50965 | 118.65301 | 32121 ft | 453 kts | 168° |
| 2026-04-23 13:09 | 32.45093 | 118.68000 | 32130 ft | 452 kts | 169° |
| 2026-04-23 13:09 | 32.39218 | 118.70642 | 32142 ft | 451 kts | 169° |
| 2026-04-23 13:10 | 32.33388 | 118.73267 | 32145 ft | 451 kts | 169° |
| 2026-04-23 13:10 | 32.27524 | 118.75914 | 32151 ft | 451 kts | 169° |
| 2026-04-23 13:11 | 32.21660 | 118.78570 | 32126 ft | 451 kts | 170° |
| 2026-04-23 13:11 | 32.15761 | 118.81232 | 32125 ft | 451 kts | 170° |
| 2026-04-23 13:12 | 32.09929 | 118.83866 | 32134 ft | 451 kts | 169° |
| 2026-04-23 13:12 | 32.04065 | 118.86507 | 32141 ft | 451 kts | 170° |
| 2026-04-23 13:13 | 31.98197 | 118.89148 | 32110 ft | 451 kts | 170° |
| 2026-04-23 13:13 | 31.92322 | 118.91788 | 32150 ft | 453 kts | 170° |
| 2026-04-23 13:14 | 31.86435 | 118.94425 | 32157 ft | 452 kts | 170° |
| 2026-04-23 13:14 | 31.80554 | 118.97058 | 32140 ft | 452 kts | 170° |
| 2026-04-23 13:15 | 31.74678 | 118.99701 | 32150 ft | 453 kts | 170° |
| 2026-04-23 13:15 | 31.68786 | 119.02344 | 32151 ft | 454 kts | 171° |
| 2026-04-23 13:16 | 31.62854 | 119.04710 | 32128 ft | 444 kts | 176° |
| 2026-04-23 13:16 | 31.56916 | 119.06932 | 32131 ft | 460 kts | 166° |
| 2026-04-23 13:16 | 31.54091 | 119.08801 | 32130 ft | 475 kts | 156° |
| 2026-04-23 13:17 | 31.51419 | 119.11125 | 32132 ft | 479 kts | 153° |
| 2026-04-23 13:17 | 31.46088 | 119.15831 | 32132 ft | 479 kts | 154° |
| 2026-04-23 13:18 | 31.40745 | 119.20496 | 32131 ft | 481 kts | 155° |
| 2026-04-23 13:18 | 31.35366 | 119.25173 | 32110 ft | 482 kts | 155° |
| 2026-04-23 13:19 | 31.29987 | 119.29857 | 32126 ft | 482 kts | 155° |
| 2026-04-23 13:19 | 31.24609 | 119.34537 | 32136 ft | 482 kts | 155° |
| 2026-04-23 13:20 | 31.19227 | 119.39215 | 32140 ft | 482 kts | 155° |
| 2026-04-23 13:20 | 31.13854 | 119.43899 | 32143 ft | 482 kts | 155° |
| 2026-04-23 13:21 | 31.08493 | 119.48587 | 32110 ft | 482 kts | 155° |
| 2026-04-23 13:21 | 31.03131 | 119.53268 | 32116 ft | 482 kts | 155° |
| 2026-04-23 13:22 | 30.97761 | 119.57952 | 32120 ft | 482 kts | 155° |
| 2026-04-23 13:22 | 30.92384 | 119.62631 | 32136 ft | 482 kts | 155° |
| 2026-04-23 13:23 | 30.87008 | 119.67293 | 32138 ft | 482 kts | 155° |
| 2026-04-23 13:23 | 30.81621 | 119.71955 | 32142 ft | 482 kts | 155° |
| 2026-04-23 13:24 | 30.76232 | 119.76622 | 32135 ft | 484 kts | 156° |
| 2026-04-23 13:24 | 30.70830 | 119.81295 | 32147 ft | 484 kts | 156° |
| 2026-04-23 13:25 | 30.65420 | 119.85940 | 32130 ft | 484 kts | 156° |
| 2026-04-23 13:25 | 30.60001 | 119.90574 | 32134 ft | 484 kts | 156° |
| 2026-04-23 13:26 | 30.54623 | 119.95294 | 32134 ft | 486 kts | 155° |
| 2026-04-23 13:26 | 30.49095 | 119.99536 | 32087 ft | 460 kts | 170° |
| 2026-04-23 13:26 | 30.46134 | 120.00703 | 32136 ft | 440 kts | 181° |
| 2026-04-23 13:27 | 30.43186 | 120.01177 | 32130 ft | 420 kts | 192° |
| 2026-04-23 13:27 | 30.40325 | 120.01059 | 32130 ft | 404 kts | 200° |
| 2026-04-23 13:27 | 30.38508 | 120.00705 | 32131 ft | 395 kts | 205° |
| 2026-04-23 13:27 | 30.35926 | 119.99805 | 32139 ft | 383 kts | 213° |
| 2026-04-23 13:28 | 30.32799 | 119.98009 | 32141 ft | 371 kts | 220° |
| 2026-04-23 13:28 | 30.29090 | 119.95531 | 32143 ft | 371 kts | 220° |
| 2026-04-23 13:29 | 30.24594 | 119.92545 | 32139 ft | 372 kts | 219° |
| 2026-04-23 13:29 | 30.20101 | 119.89567 | 32136 ft | 373 kts | 219° |
| 2026-04-23 13:30 | 30.15616 | 119.86594 | 32137 ft | 372 kts | 219° |
| 2026-04-23 13:30 | 30.11127 | 119.83618 | 32134 ft | 372 kts | 220° |
| 2026-04-23 13:31 | 30.06623 | 119.80638 | 32148 ft | 372 kts | 219° |
| 2026-04-23 13:31 | 30.02138 | 119.77657 | 32127 ft | 372 kts | 220° |
| 2026-04-23 13:32 | 29.97677 | 119.74640 | 32137 ft | 372 kts | 220° |
| 2026-04-23 13:32 | 29.93225 | 119.71631 | 32151 ft | 371 kts | 219° |
| 2026-04-23 13:33 | 29.88752 | 119.68629 | 32155 ft | 371 kts | 219° |
| 2026-04-23 13:33 | 29.86424 | 119.67295 | 32157 ft | 382 kts | 212° |
| 2026-04-23 13:33 | 29.83809 | 119.66470 | 32154 ft | 399 kts | 201° |
| 2026-04-23 13:33 | 29.80986 | 119.66213 | 32112 ft | 410 kts | 196° |
| 2026-04-23 13:34 | 29.78137 | 119.66077 | 32119 ft | 410 kts | 196° |
| 2026-04-23 13:34 | 29.72450 | 119.65773 | 32127 ft | 408 kts | 197° |
| 2026-04-23 13:35 | 29.66771 | 119.65366 | 32133 ft | 409 kts | 197° |
| 2026-04-23 13:35 | 29.61096 | 119.64959 | 32137 ft | 411 kts | 196° |
| 2026-04-23 13:36 | 29.55355 | 119.64775 | 32124 ft | 414 kts | 194° |
| 2026-04-23 13:36 | 29.49614 | 119.64593 | 32133 ft | 410 kts | 196° |
| 2026-04-23 13:37 | 29.43930 | 119.64241 | 32142 ft | 408 kts | 197° |
| 2026-04-23 13:37 | 29.38259 | 119.63850 | 32136 ft | 408 kts | 197° |
| 2026-04-23 13:38 | 29.32586 | 119.63481 | 32095 ft | 409 kts | 197° |
| 2026-04-23 13:38 | 29.26864 | 119.63128 | 32120 ft | 413 kts | 196° |
| 2026-04-23 13:39 | 29.21128 | 119.62790 | 32122 ft | 413 kts | 196° |
| 2026-04-23 13:39 | 29.15383 | 119.62450 | 32126 ft | 414 kts | 196° |
| 2026-04-23 13:40 | 29.09639 | 119.62100 | 32129 ft | 412 kts | 196° |
| 2026-04-23 13:40 | 29.03891 | 119.61739 | 32120 ft | 415 kts | 196° |
| 2026-04-23 13:41 | 28.98120 | 119.61375 | 32120 ft | 415 kts | 196° |
| 2026-04-23 13:41 | 28.92353 | 119.61020 | 32129 ft | 415 kts | 196° |
| 2026-04-23 13:42 | 28.86587 | 119.60661 | 32119 ft | 414 kts | 196° |
| 2026-04-23 13:42 | 28.80863 | 119.60308 | 32098 ft | 414 kts | 196° |
| 2026-04-23 13:43 | 28.75107 | 119.59951 | 32097 ft | 415 kts | 196° |
| 2026-04-23 13:43 | 28.69336 | 119.59592 | 32108 ft | 415 kts | 196° |
| 2026-04-23 13:44 | 28.63567 | 119.59227 | 32115 ft | 415 kts | 196° |
| 2026-04-23 13:44 | 28.57800 | 119.58879 | 32070 ft | 415 kts | 196° |
| 2026-04-23 13:45 | 28.52000 | 119.58522 | 32124 ft | 417 kts | 196° |
| 2026-04-23 13:45 | 28.46205 | 119.58163 | 32122 ft | 417 kts | 196° |
| 2026-04-23 13:46 | 28.40405 | 119.57823 | 32120 ft | 418 kts | 195° |
| 2026-04-23 13:46 | 28.34600 | 119.57510 | 32118 ft | 417 kts | 195° |
| 2026-04-23 13:47 | 28.28790 | 119.57197 | 32089 ft | 417 kts | 195° |
| 2026-04-23 13:47 | 28.22990 | 119.56882 | 32030 ft | 419 kts | 195° |
| 2026-04-23 13:47 | 28.20078 | 119.56716 | 31785 ft | 419 kts | 195° |
| 2026-04-23 13:48 | 28.17157 | 119.56553 | 31544 ft | 421 kts | 195° |
| 2026-04-23 13:48 | 28.14230 | 119.56394 | 31298 ft | 422 kts | 195° |
| 2026-04-23 13:48 | 28.11298 | 119.56236 | 31061 ft | 423 kts | 195° |
| 2026-04-23 13:48 | 28.08342 | 119.56094 | 30828 ft | 426 kts | 194° |
| 2026-04-23 13:49 | 28.05371 | 119.56028 | 30554 ft | 430 kts | 192° |
| 2026-04-23 13:49 | 28.02369 | 119.56016 | 30323 ft | 431 kts | 192° |
| 2026-04-23 13:49 | 27.99370 | 119.56031 | 30093 ft | 431 kts | 192° |
| 2026-04-23 13:49 | 27.96371 | 119.56048 | 29826 ft | 430 kts | 192° |
| 2026-04-23 13:50 | 27.93381 | 119.56056 | 29562 ft | 428 kts | 192° |
| 2026-04-23 13:50 | 27.90411 | 119.56050 | 29292 ft | 425 kts | 192° |
| 2026-04-23 13:50 | 27.87461 | 119.56032 | 29030 ft | 424 kts | 192° |
| 2026-04-23 13:50 | 27.84523 | 119.56007 | 28759 ft | 420 kts | 192° |
| 2026-04-23 13:51 | 27.81644 | 119.55981 | 28498 ft | 419 kts | 192° |
| 2026-04-23 13:51 | 27.78731 | 119.55954 | 28256 ft | 418 kts | 192° |
| 2026-04-23 13:51 | 27.75847 | 119.55932 | 27989 ft | 415 kts | 192° |
| 2026-04-23 13:51 | 27.72959 | 119.55914 | 27734 ft | 414 kts | 191° |
| 2026-04-23 13:52 | 27.70084 | 119.55899 | 27472 ft | 411 kts | 191° |
| 2026-04-23 13:52 | 27.67234 | 119.55884 | 27227 ft | 409 kts | 191° |
| 2026-04-23 13:52 | 27.64397 | 119.55866 | 26976 ft | 407 kts | 191° |
| 2026-04-23 13:52 | 27.61574 | 119.55850 | 26729 ft | 404 kts | 191° |
| 2026-04-23 13:53 | 27.58756 | 119.55833 | 26490 ft | 404 kts | 191° |
| 2026-04-23 13:53 | 27.55950 | 119.55813 | 26220 ft | 403 kts | 191° |
| 2026-04-23 13:53 | 27.53144 | 119.55792 | 25973 ft | 402 kts | 191° |
| 2026-04-23 13:53 | 27.50352 | 119.55771 | 25744 ft | 400 kts | 191° |
| 2026-04-23 13:54 | 27.47571 | 119.55751 | 25515 ft | 398 kts | 191° |
| 2026-04-23 13:54 | 27.44808 | 119.55732 | 25277 ft | 397 kts | 191° |
| 2026-04-23 13:54 | 27.42047 | 119.55710 | 25047 ft | 396 kts | 191° |
| 2026-04-23 13:54 | 27.39285 | 119.55690 | 24820 ft | 396 kts | 190° |
| 2026-04-23 13:55 | 27.36531 | 119.55673 | 24595 ft | 395 kts | 190° |
| 2026-04-23 13:55 | 27.33794 | 119.55656 | 24366 ft | 393 kts | 190° |
| 2026-04-23 13:55 | 27.31065 | 119.55639 | 24143 ft | 390 kts | 190° |
| 2026-04-23 13:55 | 27.28353 | 119.55621 | 23892 ft | 390 kts | 190° |
| 2026-04-23 13:56 | 27.25644 | 119.55602 | 23668 ft | 389 kts | 190° |
| 2026-04-23 13:56 | 27.22942 | 119.55584 | 23414 ft | 388 kts | 190° |
| 2026-04-23 13:56 | 27.20245 | 119.55566 | 23155 ft | 386 kts | 191° |
| 2026-04-23 13:56 | 27.17557 | 119.55547 | 22891 ft | 386 kts | 190° |
| 2026-04-23 13:57 | 27.14881 | 119.55530 | 22633 ft | 384 kts | 189° |
| 2026-04-23 13:57 | 27.12214 | 119.55512 | 22379 ft | 383 kts | 189° |
| 2026-04-23 13:57 | 27.09807 | 119.55496 | 22150 ft | 382 kts | 189° |
| 2026-04-23 13:57 | 27.07158 | 119.55477 | 21897 ft | 381 kts | 189° |
| 2026-04-23 13:58 | 27.04514 | 119.55458 | 21644 ft | 379 kts | 189° |
| 2026-04-23 13:58 | 27.01870 | 119.55437 | 21375 ft | 379 kts | 189° |
| 2026-04-23 13:58 | 26.99234 | 119.55417 | 21131 ft | 377 kts | 190° |
| 2026-04-23 13:58 | 26.96617 | 119.55400 | 20883 ft | 376 kts | 189° |
| 2026-04-23 13:59 | 26.94003 | 119.55387 | 20647 ft | 375 kts | 189° |
| 2026-04-23 13:59 | 26.91404 | 119.55374 | 20411 ft | 374 kts | 188° |
| 2026-04-23 13:59 | 26.88806 | 119.55361 | 20169 ft | 373 kts | 189° |
| 2026-04-23 13:59 | 26.86253 | 119.55347 | 19935 ft | 372 kts | 189° |
| 2026-04-23 14:00 | 26.84506 | 119.55334 | 19781 ft | 371 kts | 189° |
| 2026-04-23 14:00 | 26.81092 | 119.55307 | 19473 ft | 370 kts | 189° |
| 2026-04-23 14:00 | 26.78523 | 119.55285 | 19243 ft | 369 kts | 188° |
| 2026-04-23 14:00 | 26.75954 | 119.55267 | 18990 ft | 368 kts | 188° |
| 2026-04-23 14:01 | 26.73397 | 119.55254 | 18759 ft | 366 kts | 188° |
| 2026-04-23 14:01 | 26.70869 | 119.55244 | 18322 ft | 363 kts | 188° |
| 2026-04-23 14:01 | 26.68350 | 119.55231 | 17805 ft | 361 kts | 188° |
| 2026-04-23 14:01 | 26.65847 | 119.55217 | 17309 ft | 358 kts | 188° |
| 2026-04-23 14:02 | 26.63359 | 119.55201 | 16815 ft | 356 kts | 188° |
| 2026-04-23 14:02 | 26.60892 | 119.55181 | 16313 ft | 354 kts | 188° |
| 2026-04-23 14:02 | 26.58439 | 119.55162 | 15844 ft | 351 kts | 188° |
| 2026-04-23 14:02 | 26.56008 | 119.55145 | 15416 ft | 348 kts | 188° |
| 2026-04-23 14:03 | 26.53594 | 119.55127 | 14958 ft | 347 kts | 188° |
| 2026-04-23 14:03 | 26.51183 | 119.55109 | 14503 ft | 345 kts | 187° |
| 2026-04-23 14:03 | 26.48792 | 119.55094 | 14041 ft | 343 kts | 187° |
| 2026-04-23 14:03 | 26.46408 | 119.55079 | 13544 ft | 341 kts | 187° |
| 2026-04-23 14:04 | 26.44033 | 119.55179 | 13045 ft | 343 kts | 180° |
| 2026-04-23 14:04 | 26.41687 | 119.55665 | 12434 ft | 344 kts | 172° |
| 2026-04-23 14:04 | 26.39413 | 119.56575 | 11843 ft | 350 kts | 162° |
| 2026-04-23 14:04 | 26.37275 | 119.57887 | 11417 ft | 352 kts | 153° |
| 2026-04-23 14:05 | 26.35326 | 119.59559 | 10916 ft | 357 kts | 144° |
| 2026-04-23 14:05 | 26.33611 | 119.61561 | 10493 ft | 356 kts | 136° |
| 2026-04-23 14:05 | 26.31998 | 119.63638 | 10074 ft | 352 kts | 137° |
| 2026-04-23 14:05 | 26.30405 | 119.65684 | 9836 ft | 343 kts | 136° |
| 2026-04-23 14:06 | 26.28871 | 119.67659 | 9712 ft | 331 kts | 136° |
| 2026-04-23 14:06 | 26.27326 | 119.69469 | 9581 ft | 314 kts | 146° |
| 2026-04-23 14:06 | 26.25565 | 119.70775 | 9435 ft | 295 kts | 160° |
| 2026-04-23 14:06 | 26.23692 | 119.71570 | 9155 ft | 283 kts | 172° |
| 2026-04-23 14:07 | 26.21783 | 119.71884 | 8916 ft | 274 kts | 184° |
| 2026-04-23 14:07 | 26.18080 | 119.71209 | 8903 ft | 270 kts | 205° |
| 2026-04-23 14:07 | 26.16399 | 119.70319 | 8801 ft | 269 kts | 211° |
| 2026-04-23 14:08 | 26.14729 | 119.69371 | 8675 ft | 268 kts | 210° |
| 2026-04-23 14:08 | 26.13063 | 119.68428 | 8532 ft | 267 kts | 210° |
| 2026-04-23 14:08 | 26.11414 | 119.67494 | 8148 ft | 266 kts | 210° |
| 2026-04-23 14:08 | 26.09765 | 119.66560 | 7722 ft | 266 kts | 210° |
| 2026-04-23 14:09 | 26.08117 | 119.65630 | 7313 ft | 266 kts | 210° |
| 2026-04-23 14:09 | 26.06465 | 119.64703 | 6918 ft | 266 kts | 209° |
| 2026-04-23 14:09 | 26.04817 | 119.63773 | 6531 ft | 266 kts | 209° |
| 2026-04-23 14:09 | 26.03172 | 119.62842 | 6118 ft | 265 kts | 209° |
| 2026-04-23 14:10 | 26.01531 | 119.61913 | 5691 ft | 266 kts | 209° |
| 2026-04-23 14:10 | 25.99876 | 119.60981 | 5248 ft | 267 kts | 209° |
| 2026-04-23 14:10 | 25.98214 | 119.60049 | 4811 ft | 268 kts | 210° |
| 2026-04-23 14:10 | 25.96547 | 119.59110 | 4358 ft | 268 kts | 207° |
| 2026-04-23 14:11 | 25.95442 | 119.58489 | 4063 ft | 270 kts | 208° |
| 2026-04-23 14:11 | 25.93195 | 119.57220 | 3434 ft | 272 kts | 208° |
| 2026-04-23 14:11 | 25.92063 | 119.56582 | 3109 ft | 277 kts | 207° |
| 2026-04-23 14:11 | 25.89781 | 119.55300 | 2999 ft | 281 kts | 207° |
| 2026-04-23 14:12 | 25.88002 | 119.54297 | 3030 ft | 282 kts | 207° |
| 2026-04-23 14:12 | 25.86842 | 119.53644 | 3029 ft | 282 kts | 205° |
| 2026-04-23 14:12 | 25.85102 | 119.52671 | 3026 ft | 278 kts | 206° |
| 2026-04-23 14:12 | 25.83394 | 119.51712 | 3021 ft | 275 kts | 205° |
| 2026-04-23 14:13 | 25.81692 | 119.50758 | 3005 ft | 269 kts | 206° |
| 2026-04-23 14:13 | 25.80080 | 119.49853 | 3013 ft | 249 kts | 206° |
| 2026-04-23 14:13 | 25.78568 | 119.49003 | 3011 ft | 240 kts | 206° |
| 2026-04-23 14:13 | 25.76987 | 119.48487 | 3012 ft | 237 kts | 177° |
| 2026-04-23 14:14 | 25.75423 | 119.48899 | 3019 ft | 231 kts | 146° |
| 2026-04-23 14:14 | 25.74255 | 119.50066 | 3021 ft | 221 kts | 120° |
| 2026-04-23 14:14 | 25.73651 | 119.51528 | 3010 ft | 203 kts | 99° |
| 2026-04-23 14:14 | 25.73574 | 119.53043 | 3022 ft | 188 kts | 79° |
| 2026-04-23 14:15 | 25.73911 | 119.54330 | 3019 ft | 162 kts | 60° |
| 2026-04-23 14:15 | 25.74499 | 119.55322 | 3052 ft | 151 kts | 45° |
| 2026-04-23 14:15 | 25.75288 | 119.56083 | 3030 ft | 151 kts | 32° |
| 2026-04-23 14:15 | 25.76215 | 119.56625 | 3047 ft | 156 kts | 22° |
| 2026-04-23 14:16 | 25.77186 | 119.57175 | 3015 ft | 158 kts | 25° |
| 2026-04-23 14:16 | 25.78133 | 119.57706 | 2972 ft | 151 kts | 28° |
| 2026-04-23 14:16 | 25.79075 | 119.58235 | 2820 ft | 152 kts | 27° |
| 2026-04-23 14:16 | 25.80016 | 119.58762 | 2667 ft | 150 kts | 28° |
| 2026-04-23 14:17 | 25.80938 | 119.59282 | 2452 ft | 149 kts | 28° |
| 2026-04-23 14:17 | 25.81864 | 119.59804 | 2281 ft | 148 kts | 29° |
| 2026-04-23 14:17 | 25.82777 | 119.60317 | 2096 ft | 145 kts | 26° |
| 2026-04-23 14:17 | 25.83719 | 119.60847 | 1885 ft | 152 kts | 30° |
| 2026-04-23 14:18 | 25.84656 | 119.61372 | 1694 ft | 152 kts | 33° |
| 2026-04-23 14:18 | 25.85595 | 119.61900 | 1481 ft | 147 kts | 29° |
| 2026-04-23 14:18 | 25.86485 | 119.62402 | 1286 ft | 145 kts | 29° |
| 2026-04-23 14:18 | 25.87378 | 119.62905 | 1094 ft | 144 kts | 28° |
| 2026-04-23 14:19 | 25.88287 | 119.63417 | 902 ft | 149 kts | 26° |
| 2026-04-23 14:19 | 25.89196 | 119.63929 | 699 ft | 146 kts | 28° |
| 2026-04-23 14:19 | 25.90102 | 119.64439 | 499 ft | 144 kts | 27° |
| 2026-04-23 14:19 | 25.90996 | 119.64944 | 321 ft | 146 kts | 27° |
| 2026-04-23 14:20 | 25.91899 | 119.65458 | 108 ft | 144 kts | 29° |
| 2026-04-23 14:20 | 25.92748 | 119.65937 | 23 ft | 113 kts | 26° |
| 2026-04-23 14:20 | 25.93181 | 119.66177 | 24 ft | 26 kts | 27° |
| 2026-04-23 14:20 | 25.93318 | 119.66258 | 23 ft | 22 kts | 35° |
| 2026-04-23 14:21 | 25.93480 | 119.66348 | 23 ft | 30 kts | 31° |
| 2026-04-23 14:21 | 25.93620 | 119.66483 | 23 ft | 16 kts | 57° |
| 2026-04-23 14:21 | 25.93654 | 119.66537 | 23 ft | 8 kts | 54° |
| 2026-04-23 14:21 | 25.93682 | 119.66580 | 23 ft | 6 kts | 56° |